NCAR-RAP Real-Time Weather Data

Output produced by METARs form (24 April 2018  16:10 UTC)
found at http://weather.rap.ucar.edu/surface/
 
RJTO 240800Z 22008KT 9999 -SHRA FEW015 SCT025 BKN050 20/16 Q1011
RJTO 240700Z 21012KT 9999 FEW015 SCT025 BKN130 20/17 Q1011
RJTO 240600Z 22011KT 9999 FEW020 SCT060 BKN130 21/17 Q1012
RJTO 240500Z 22011KT 9999 FEW020 SCT070 BKN180 21/17 Q1012
RJTO 240400Z 21014KT 9999 FEW020 SCT060 BKN180 22/17 Q1013
RJTO 240300Z 22011KT 190V260 9999 FEW020 SCT050 BKN070 21/17 Q1014
RJTO 240200Z 22007KT 9999 FEW020 BKN050 BKN070 20/17 Q1015
RJTO 240100Z 22011KT 9999 FEW020 SCT050 BKN180 22/17 Q1016
RJTO 240000Z 20011KT 9999 FEW020 SCT050 BKN180 21/15 Q1016
RJTO 232300Z 19010KT 9999 FEW020 SCT060 BKN/// 21/16 Q1017
RJTO 230800Z 07003KT 340V120 9999 FEW009 SCT015 BKN050 17/14 Q1019
RJTO 230700Z VRB04KT 9999 FEW009 SCT030 BKN045 18/15 Q1019
RJTO 230600Z 08006KT 020V130 9999 FEW009 SCT015 BKN040 19/16 Q1019
RJTO 230500Z 08011KT 050V110 8000 FEW009 SCT012 BKN035 18/15 Q1020
RJTO 230400Z 08012KT 9999 FEW009 SCT013 BKN035 19/14 Q1020
RJTO 230300Z 05013KT 9999 FEW009 SCT012 20/16 Q1020
RJTO 230209Z 04012KT 8000 FEW007 BKN010 19/15 Q1021 RMK 1ST007 5SC010 A3015
RJTO 230200Z 05012KT 8000 FEW007 SCT010 19/15 Q1021
RJTO 230100Z 02011KT 7000 FEW007 SCT015 19/16 Q1021
RJTO 230000Z 33004KT 280V030 6000 FEW007 SCT009 BKN011 17/15 Q1021
RJTO 222336Z 34005KT 300V020 5000 BR FEW007 BKN009 BKN010 17/15 Q1021 RMK 1ST007 5ST009 7SC010 A3017
RJTO 222309Z 34004KT 290V030 4500 BR FEW006 SCT008 BKN009 17/15 Q1021 RMK 1ST006 4ST008 7ST009 A3016
RJTO 222300Z 34004KT 280V020 4000 BR FEW006 BKN008 BKN009 17/15 Q1021
RJTO 220800Z 20017KT 9999 FEW015 BKN/// 20/16 Q1016
RJTO 220700Z 20018KT 160V240 9999 FEW012 SCT/// 21/15 Q1017
RJTO 220600Z 20020KT 9999 FEW011 21/15 Q1017
RJTO 220500Z 18019KT 9999 FEW009 SCT012 21/16 Q1017